sensor_id;sensor_type;location;lat;lon;timestamp;temperature;humidity
6879;DHT22;3478;51.462;7.338;2023-02-21T00:04:38;7.80;99.90
6879;DHT22;3478;51.462;7.338;2023-02-21T00:09:58;7.80;99.90
6879;DHT22;3478;51.462;7.338;2023-02-21T00:15:18;7.80;99.90
6879;DHT22;3478;51.462;7.338;2023-02-21T00:20:37;7.80;99.90
6879;DHT22;3478;51.462;7.338;2023-02-21T00:25:58;7.80;99.90
6879;DHT22;3478;51.462;7.338;2023-02-21T00:31:18;7.80;99.90
6879;DHT22;3478;51.462;7.338;2023-02-21T00:36:37;7.70;99.90
6879;DHT22;3478;51.462;7.338;2023-02-21T00:41:58;7.70;99.90
6879;DHT22;3478;51.462;7.338;2023-02-21T00:47:17;7.80;99.90
6879;DHT22;3478;51.462;7.338;2023-02-21T00:52:36;7.70;99.90
6879;DHT22;3478;51.462;7.338;2023-02-21T00:57:56;7.70;99.90
6879;DHT22;3478;51.462;7.338;2023-02-21T01:03:16;7.70;99.90
6879;DHT22;3478;51.462;7.338;2023-02-21T01:08:35;7.70;99.90
6879;DHT22;3478;51.462;7.338;2023-02-21T01:13:56;7.70;99.90
6879;DHT22;3478;51.462;7.338;2023-02-21T01:19:16;7.60;99.90
6879;DHT22;3478;51.462;7.338;2023-02-21T01:24:35;7.60;99.90
6879;DHT22;3478;51.462;7.338;2023-02-21T01:29:56;7.60;99.90
6879;DHT22;3478;51.462;7.338;2023-02-21T01:35:15;7.60;99.90
6879;DHT22;3478;51.462;7.338;2023-02-21T01:40:36;7.60;99.90
6879;DHT22;3478;51.462;7.338;2023-02-21T01:45:57;7.60;99.90
6879;DHT22;3478;51.462;7.338;2023-02-21T01:51:19;7.60;99.90
6879;DHT22;3478;51.462;7.338;2023-02-21T01:56:39;7.60;99.90
6879;DHT22;3478;51.462;7.338;2023-02-21T02:02:04;7.60;99.90
6879;DHT22;3478;51.462;7.338;2023-02-21T02:07:26;7.60;99.90
6879;DHT22;3478;51.462;7.338;2023-02-21T02:13:16;7.50;99.90
6879;DHT22;3478;51.462;7.338;2023-02-21T02:18:33;7.50;99.90
6879;DHT22;3478;51.462;7.338;2023-02-21T02:24:12;7.50;99.90
6879;DHT22;3478;51.462;7.338;2023-02-21T02:29:33;7.50;99.90
6879;DHT22;3478;51.462;7.338;2023-02-21T02:34:48;7.50;99.90
6879;DHT22;3478;51.462;7.338;2023-02-21T02:39:59;7.50;99.90
6879;DHT22;3478;51.462;7.338;2023-02-21T02:45:06;7.50;99.90
6879;DHT22;3478;51.462;7.338;2023-02-21T02:50:12;7.50;99.90
6879;DHT22;3478;51.462;7.338;2023-02-21T02:55:25;7.60;99.90
6879;DHT22;3478;51.462;7.338;2023-02-21T03:00:31;7.50;99.90
6879;DHT22;3478;51.462;7.338;2023-02-21T03:05:52;7.50;99.90
6879;DHT22;3478;51.462;7.338;2023-02-21T03:11:05;7.50;99.90
6879;DHT22;3478;51.462;7.338;2023-02-21T03:16:25;7.50;99.90
6879;DHT22;3478;51.462;7.338;2023-02-21T03:21:33;7.50;99.90
6879;DHT22;3478;51.462;7.338;2023-02-21T03:26:39;7.50;99.90
6879;DHT22;3478;51.462;7.338;2023-02-21T03:31:46;7.50;99.90
6879;DHT22;3478;51.462;7.338;2023-02-21T03:36:50;7.50;99.90
6879;DHT22;3478;51.462;7.338;2023-02-21T03:41:52;7.50;99.90
6879;DHT22;3478;51.462;7.338;2023-02-21T03:46:54;7.50;99.90
6879;DHT22;3478;51.462;7.338;2023-02-21T03:51:57;7.50;99.90
6879;DHT22;3478;51.462;7.338;2023-02-21T03:56:59;7.50;99.90
6879;DHT22;3478;51.462;7.338;2023-02-21T04:02:01;7.50;99.90
6879;DHT22;3478;51.462;7.338;2023-02-21T04:07:04;7.50;99.90
6879;DHT22;3478;51.462;7.338;2023-02-21T04:12:06;7.50;99.90
6879;DHT22;3478;51.462;7.338;2023-02-21T04:17:08;7.50;99.90
6879;DHT22;3478;51.462;7.338;2023-02-21T04:22:11;7.50;99.90
6879;DHT22;3478;51.462;7.338;2023-02-21T04:27:13;7.60;99.90
6879;DHT22;3478;51.462;7.338;2023-02-21T04:32:15;7.50;99.90
6879;DHT22;3478;51.462;7.338;2023-02-21T04:37:18;7.50;99.90
6879;DHT22;3478;51.462;7.338;2023-02-21T04:42:20;7.50;99.90
6879;DHT22;3478;51.462;7.338;2023-02-21T04:47:22;7.50;99.90
6879;DHT22;3478;51.462;7.338;2023-02-21T04:52:28;7.50;99.90
6879;DHT22;3478;51.462;7.338;2023-02-21T04:57:30;7.50;99.90
6879;DHT22;3478;51.462;7.338;2023-02-21T05:02:32;7.50;99.90
6879;DHT22;3478;51.462;7.338;2023-02-21T05:07:36;7.50;99.90
6879;DHT22;3478;51.462;7.338;2023-02-21T05:12:38;7.50;99.90
6879;DHT22;3478;51.462;7.338;2023-02-21T05:17:40;7.50;99.90
6879;DHT22;3478;51.462;7.338;2023-02-21T05:22:43;7.50;99.90
6879;DHT22;3478;51.462;7.338;2023-02-21T05:27:45;7.50;99.90
6879;DHT22;3478;51.462;7.338;2023-02-21T05:32:47;7.60;99.90
6879;DHT22;3478;51.462;7.338;2023-02-21T05:37:50;7.60;99.90
6879;DHT22;3478;51.462;7.338;2023-02-21T05:42:52;7.60;99.90
6879;DHT22;3478;51.462;7.338;2023-02-21T05:47:54;7.60;99.90
6879;DHT22;3478;51.462;7.338;2023-02-21T05:53:01;7.60;99.90
6879;DHT22;3478;51.462;7.338;2023-02-21T05:58:03;7.60;99.90
6879;DHT22;3478;51.462;7.338;2023-02-21T06:03:04;7.60;99.90
6879;DHT22;3478;51.462;7.338;2023-02-21T06:08:09;7.60;99.90
6879;DHT22;3478;51.462;7.338;2023-02-21T06:13:11;7.70;99.90
6879;DHT22;3478;51.462;7.338;2023-02-21T06:18:13;7.60;99.90
6879;DHT22;3478;51.462;7.338;2023-02-21T06:23:17;7.60;99.90
6879;DHT22;3478;51.462;7.338;2023-02-21T06:28:19;7.70;99.90
6879;DHT22;3478;51.462;7.338;2023-02-21T06:33:20;7.60;99.90
6879;DHT22;3478;51.462;7.338;2023-02-21T06:38:24;7.70;99.90
6879;DHT22;3478;51.462;7.338;2023-02-21T06:43:26;7.60;99.90
6879;DHT22;3478;51.462;7.338;2023-02-21T06:48:27;7.60;99.90
6879;DHT22;3478;51.462;7.338;2023-02-21T06:53:31;7.60;99.90
6879;DHT22;3478;51.462;7.338;2023-02-21T06:58:32;7.60;99.90
6879;DHT22;3478;51.462;7.338;2023-02-21T07:03:38;7.60;99.90
6879;DHT22;3478;51.462;7.338;2023-02-21T07:08:41;7.60;99.90
6879;DHT22;3478;51.462;7.338;2023-02-21T07:13:46;7.60;99.90
6879;DHT22;3478;51.462;7.338;2023-02-21T07:18:49;7.60;99.90
6879;DHT22;3478;51.462;7.338;2023-02-21T07:23:53;7.60;99.90
6879;DHT22;3478;51.462;7.338;2023-02-21T07:28:54;7.60;99.90
6879;DHT22;3478;51.462;7.338;2023-02-21T07:33:56;7.60;99.90
6879;DHT22;3478;51.462;7.338;2023-02-21T07:39:00;7.60;99.90
6879;DHT22;3478;51.462;7.338;2023-02-21T07:44:01;7.60;99.90
6879;DHT22;3478;51.462;7.338;2023-02-21T07:49:03;7.60;99.90
6879;DHT22;3478;51.462;7.338;2023-02-21T07:54:07;7.70;99.90
6879;DHT22;3478;51.462;7.338;2023-02-21T07:59:08;7.70;99.90
6879;DHT22;3478;51.462;7.338;2023-02-21T08:04:10;7.70;99.90
6879;DHT22;3478;51.462;7.338;2023-02-21T08:09:14;7.70;99.90
6879;DHT22;3478;51.462;7.338;2023-02-21T08:14:15;7.70;99.90
6879;DHT22;3478;51.462;7.338;2023-02-21T08:19:17;7.60;99.90
6879;DHT22;3478;51.462;7.338;2023-02-21T08:24:21;7.70;99.90
6879;DHT22;3478;51.462;7.338;2023-02-21T08:29:22;7.70;99.90
6879;DHT22;3478;51.462;7.338;2023-02-21T08:34:25;7.70;99.90
6879;DHT22;3478;51.462;7.338;2023-02-21T08:39:30;7.70;99.90
6879;DHT22;3478;51.462;7.338;2023-02-21T08:44:31;7.70;99.90
6879;DHT22;3478;51.462;7.338;2023-02-21T08:49:33;7.70;99.90
6879;DHT22;3478;51.462;7.338;2023-02-21T08:54:40;7.70;99.90
6879;DHT22;3478;51.462;7.338;2023-02-21T08:59:43;7.60;99.90
6879;DHT22;3478;51.462;7.338;2023-02-21T09:04:45;7.50;99.90
6879;DHT22;3478;51.462;7.338;2023-02-21T09:09:49;7.50;99.90
6879;DHT22;3478;51.462;7.338;2023-02-21T09:14:51;7.40;99.90
6879;DHT22;3478;51.462;7.338;2023-02-21T09:19:53;7.40;99.90
6879;DHT22;3478;51.462;7.338;2023-02-21T09:24:56;7.40;99.90
6879;DHT22;3478;51.462;7.338;2023-02-21T09:29:58;7.40;99.90
6879;DHT22;3478;51.462;7.338;2023-02-21T09:35:00;7.40;99.90
6879;DHT22;3478;51.462;7.338;2023-02-21T09:40:03;7.50;99.90
6879;DHT22;3478;51.462;7.338;2023-02-21T09:45:13;7.40;99.90
6879;DHT22;3478;51.462;7.338;2023-02-21T09:50:22;7.40;99.90
6879;DHT22;3478;51.462;7.338;2023-02-21T09:55:32;7.50;99.90
6879;DHT22;3478;51.462;7.338;2023-02-21T10:00:36;7.50;99.90
6879;DHT22;3478;51.462;7.338;2023-02-21T10:05:43;7.50;99.90
6879;DHT22;3478;51.462;7.338;2023-02-21T10:10:50;7.50;99.90
6879;DHT22;3478;51.462;7.338;2023-02-21T10:16:01;7.50;99.90
6879;DHT22;3478;51.462;7.338;2023-02-21T10:21:11;7.60;99.90
6879;DHT22;3478;51.462;7.338;2023-02-21T10:26:19;7.60;99.90
6879;DHT22;3478;51.462;7.338;2023-02-21T10:31:28;7.60;99.90
6879;DHT22;3478;51.462;7.338;2023-02-21T10:36:31;7.60;99.90
6879;DHT22;3478;51.462;7.338;2023-02-21T10:41:37;7.60;99.90
6879;DHT22;3478;51.462;7.338;2023-02-21T10:46:44;7.70;99.90
6879;DHT22;3478;51.462;7.338;2023-02-21T10:52:02;7.70;99.90
6879;DHT22;3478;51.462;7.338;2023-02-21T10:57:09;7.70;99.90
6879;DHT22;3478;51.462;7.338;2023-02-21T11:02:31;8.00;99.90
6879;DHT22;3478;51.462;7.338;2023-02-21T11:07:33;8.00;99.90
6879;DHT22;3478;51.462;7.338;2023-02-21T11:12:37;8.10;99.90
6879;DHT22;3478;51.462;7.338;2023-02-21T11:17:41;8.00;99.90
6879;DHT22;3478;51.462;7.338;2023-02-21T11:22:46;8.10;99.90
6879;DHT22;3478;51.462;7.338;2023-02-21T11:28:02;8.10;99.90
6879;DHT22;3478;51.462;7.338;2023-02-21T11:33:05;8.10;99.90
6879;DHT22;3478;51.462;7.338;2023-02-21T11:38:11;8.20;99.90
6879;DHT22;3478;51.462;7.338;2023-02-21T11:43:31;8.30;99.90
6879;DHT22;3478;51.462;7.338;2023-02-21T11:48:37;8.40;99.90
6879;DHT22;3478;51.462;7.338;2023-02-21T11:53:42;8.30;99.90
6879;DHT22;3478;51.462;7.338;2023-02-21T11:58:55;8.40;99.90
6879;DHT22;3478;51.462;7.338;2023-02-21T12:04:20;8.60;99.90
6879;DHT22;3478;51.462;7.338;2023-02-21T12:09:27;8.80;99.90
6879;DHT22;3478;51.462;7.338;2023-02-21T12:14:47;8.90;99.90
6879;DHT22;3478;51.462;7.338;2023-02-21T12:20:10;8.90;99.90
6879;DHT22;3478;51.462;7.338;2023-02-21T12:25:19;9.00;99.90
6879;DHT22;3478;51.462;7.338;2023-02-21T12:30:32;8.90;99.90
6879;DHT22;3478;51.462;7.338;2023-02-21T12:46:51;8.90;99.90
6879;DHT22;3478;51.462;7.338;2023-02-21T12:52:01;9.00;99.90
6879;DHT22;3478;51.462;7.338;2023-02-21T12:57:08;9.00;99.90
6879;DHT22;3478;51.462;7.338;2023-02-21T13:02:18;9.00;99.90
6879;DHT22;3478;51.462;7.338;2023-02-21T13:07:24;9.10;99.90
6879;DHT22;3478;51.462;7.338;2023-02-21T13:12:34;9.20;99.90
6879;DHT22;3478;51.462;7.338;2023-02-21T13:17:38;9.30;99.90
6879;DHT22;3478;51.462;7.338;2023-02-21T13:28:39;9.30;99.90
6879;DHT22;3478;51.462;7.338;2023-02-21T13:33:47;9.20;99.90
6879;DHT22;3478;51.462;7.338;2023-02-21T13:39:01;9.10;99.90
6879;DHT22;3478;51.462;7.338;2023-02-21T13:44:07;9.20;99.90
6879;DHT22;3478;51.462;7.338;2023-02-21T13:49:36;9.10;99.90
6879;DHT22;3478;51.462;7.338;2023-02-21T14:00:52;9.30;99.90
6879;DHT22;3478;51.462;7.338;2023-02-21T14:06:30;9.30;99.90
6879;DHT22;3478;51.462;7.338;2023-02-21T14:11:38;9.30;99.90
6879;DHT22;3478;51.462;7.338;2023-02-21T14:16:48;9.30;99.90
6879;DHT22;3478;51.462;7.338;2023-02-21T14:22:00;9.10;99.90
6879;DHT22;3478;51.462;7.338;2023-02-21T14:27:04;9.00;99.90
6879;DHT22;3478;51.462;7.338;2023-02-21T14:32:34;8.90;99.90
6879;DHT22;3478;51.462;7.338;2023-02-21T14:37:41;9.00;99.90
6879;DHT22;3478;51.462;7.338;2023-02-21T14:42:51;8.90;99.90
6879;DHT22;3478;51.462;7.338;2023-02-21T14:53:39;9.00;99.90
6879;DHT22;3478;51.462;7.338;2023-02-21T15:04:40;9.10;99.90
6879;DHT22;3478;51.462;7.338;2023-02-21T15:09:44;9.10;99.90
6879;DHT22;3478;51.462;7.338;2023-02-21T15:14:49;9.10;99.90
6879;DHT22;3478;51.462;7.338;2023-02-21T15:20:01;9.10;99.90
6879;DHT22;3478;51.462;7.338;2023-02-21T15:25:28;9.00;99.90
6879;DHT22;3478;51.462;7.338;2023-02-21T15:30:40;8.90;99.90
6879;DHT22;3478;51.462;7.338;2023-02-21T15:35:45;9.00;99.90
6879;DHT22;3478;51.462;7.338;2023-02-21T15:40:51;9.00;99.90
6879;DHT22;3478;51.462;7.338;2023-02-21T15:45:56;9.00;99.90
6879;DHT22;3478;51.462;7.338;2023-02-21T15:51:03;8.90;99.90
6879;DHT22;3478;51.462;7.338;2023-02-21T15:56:20;8.90;99.90
6879;DHT22;3478;51.462;7.338;2023-02-21T16:01:22;8.90;99.90
6879;DHT22;3478;51.462;7.338;2023-02-21T16:06:26;8.80;99.90
6879;DHT22;3478;51.462;7.338;2023-02-21T16:11:45;8.80;99.90
6879;DHT22;3478;51.462;7.338;2023-02-21T16:16:50;8.80;99.90
6879;DHT22;3478;51.462;7.338;2023-02-21T16:22:09;8.80;99.90
6879;DHT22;3478;51.462;7.338;2023-02-21T16:27:15;8.80;99.90
6879;DHT22;3478;51.462;7.338;2023-02-21T16:32:19;8.90;99.90
6879;DHT22;3478;51.462;7.338;2023-02-21T16:37:22;8.90;99.90
6879;DHT22;3478;51.462;7.338;2023-02-21T16:42:25;8.90;99.90
6879;DHT22;3478;51.462;7.338;2023-02-21T16:47:27;8.90;99.90
6879;DHT22;3478;51.462;7.338;2023-02-21T16:52:29;8.90;99.90
6879;DHT22;3478;51.462;7.338;2023-02-21T16:57:32;8.90;99.90
6879;DHT22;3478;51.462;7.338;2023-02-21T17:02:34;8.90;99.90
6879;DHT22;3478;51.462;7.338;2023-02-21T17:07:36;8.90;99.90
6879;DHT22;3478;51.462;7.338;2023-02-21T17:12:39;8.90;99.90
6879;DHT22;3478;51.462;7.338;2023-02-21T17:17:41;9.00;99.90
6879;DHT22;3478;51.462;7.338;2023-02-21T17:22:43;8.90;99.90
6879;DHT22;3478;51.462;7.338;2023-02-21T17:27:47;8.90;99.90
6879;DHT22;3478;51.462;7.338;2023-02-21T17:32:49;9.00;99.90
6879;DHT22;3478;51.462;7.338;2023-02-21T17:37:52;9.00;99.90
6879;DHT22;3478;51.462;7.338;2023-02-21T17:42:55;8.90;99.90
6879;DHT22;3478;51.462;7.338;2023-02-21T17:47:57;8.90;99.90
6879;DHT22;3478;51.462;7.338;2023-02-21T17:53:00;8.90;99.90
6879;DHT22;3478;51.462;7.338;2023-02-21T17:58:03;8.90;99.90
6879;DHT22;3478;51.462;7.338;2023-02-21T18:03:05;8.90;99.90
6879;DHT22;3478;51.462;7.338;2023-02-21T18:08:08;8.90;99.90
6879;DHT22;3478;51.462;7.338;2023-02-21T18:13:12;8.90;99.90
6879;DHT22;3478;51.462;7.338;2023-02-21T18:18:13;8.90;99.90
6879;DHT22;3478;51.462;7.338;2023-02-21T18:23:15;8.90;99.90
6879;DHT22;3478;51.462;7.338;2023-02-21T18:28:19;8.90;99.90
6879;DHT22;3478;51.462;7.338;2023-02-21T18:33:23;8.90;99.90
6879;DHT22;3478;51.462;7.338;2023-02-21T18:38:27;8.90;99.90
6879;DHT22;3478;51.462;7.338;2023-02-21T18:43:30;8.90;99.90
6879;DHT22;3478;51.462;7.338;2023-02-21T18:48:31;8.90;99.90
6879;DHT22;3478;51.462;7.338;2023-02-21T18:53:33;8.80;99.90
6879;DHT22;3478;51.462;7.338;2023-02-21T18:58:37;8.90;99.90
6879;DHT22;3478;51.462;7.338;2023-02-21T19:03:39;8.90;99.90
6879;DHT22;3478;51.462;7.338;2023-02-21T19:08:41;8.90;99.90
6879;DHT22;3478;51.462;7.338;2023-02-21T19:13:44;8.90;99.90
6879;DHT22;3478;51.462;7.338;2023-02-21T19:18:52;8.90;99.90
6879;DHT22;3478;51.462;7.338;2023-02-21T19:23:54;8.80;99.90
6879;DHT22;3478;51.462;7.338;2023-02-21T19:28:57;8.80;99.90
6879;DHT22;3478;51.462;7.338;2023-02-21T19:33:59;8.80;99.90
6879;DHT22;3478;51.462;7.338;2023-02-21T19:39:01;8.70;99.90
6879;DHT22;3478;51.462;7.338;2023-02-21T19:44:05;8.70;99.90
6879;DHT22;3478;51.462;7.338;2023-02-21T19:49:09;8.70;99.90
6879;DHT22;3478;51.462;7.338;2023-02-21T19:54:18;8.70;99.90
6879;DHT22;3478;51.462;7.338;2023-02-21T19:59:22;8.60;99.90
6879;DHT22;3478;51.462;7.338;2023-02-21T20:04:28;8.60;99.90
6879;DHT22;3478;51.462;7.338;2023-02-21T20:09:30;8.50;99.90
6879;DHT22;3478;51.462;7.338;2023-02-21T20:14:33;8.50;99.90
6879;DHT22;3478;51.462;7.338;2023-02-21T20:19:35;8.60;99.90
6879;DHT22;3478;51.462;7.338;2023-02-21T20:24:37;8.50;99.90
6879;DHT22;3478;51.462;7.338;2023-02-21T20:29:40;8.60;99.90
6879;DHT22;3478;51.462;7.338;2023-02-21T20:34:42;8.60;99.90
6879;DHT22;3478;51.462;7.338;2023-02-21T20:39:47;8.60;99.90
6879;DHT22;3478;51.462;7.338;2023-02-21T20:44:50;8.60;99.90
6879;DHT22;3478;51.462;7.338;2023-02-21T20:49:52;8.60;99.90
6879;DHT22;3478;51.462;7.338;2023-02-21T20:54:54;8.60;99.90
6879;DHT22;3478;51.462;7.338;2023-02-21T20:59:57;8.50;99.90
6879;DHT22;3478;51.462;7.338;2023-02-21T21:04:59;8.50;99.90
6879;DHT22;3478;51.462;7.338;2023-02-21T21:10:01;8.40;99.90
6879;DHT22;3478;51.462;7.338;2023-02-21T21:15:05;8.40;99.90
6879;DHT22;3478;51.462;7.338;2023-02-21T21:20:09;8.50;99.90
6879;DHT22;3478;51.462;7.338;2023-02-21T21:25:14;8.50;99.90
6879;DHT22;3478;51.462;7.338;2023-02-21T21:30:18;8.50;99.90
6879;DHT22;3478;51.462;7.338;2023-02-21T21:35:22;8.40;99.90
6879;DHT22;3478;51.462;7.338;2023-02-21T21:40:29;8.40;99.90
6879;DHT22;3478;51.462;7.338;2023-02-21T21:45:32;8.50;99.90
6879;DHT22;3478;51.462;7.338;2023-02-21T21:50:43;8.40;99.90
6879;DHT22;3478;51.462;7.338;2023-02-21T21:55:45;8.40;99.90
6879;DHT22;3478;51.462;7.338;2023-02-21T22:00:48;8.40;99.90
6879;DHT22;3478;51.462;7.338;2023-02-21T22:05:51;8.40;99.90
6879;DHT22;3478;51.462;7.338;2023-02-21T22:10:52;8.40;99.90
6879;DHT22;3478;51.462;7.338;2023-02-21T22:15:56;8.40;99.90
6879;DHT22;3478;51.462;7.338;2023-02-21T22:20:58;8.40;99.90
6879;DHT22;3478;51.462;7.338;2023-02-21T22:26:00;8.30;99.90
6879;DHT22;3478;51.462;7.338;2023-02-21T22:31:06;8.30;99.90
6879;DHT22;3478;51.462;7.338;2023-02-21T22:36:11;8.30;99.90
6879;DHT22;3478;51.462;7.338;2023-02-21T22:41:15;8.20;99.90
6879;DHT22;3478;51.462;7.338;2023-02-21T22:46:21;8.10;99.90
6879;DHT22;3478;51.462;7.338;2023-02-21T22:51:25;8.10;99.90
6879;DHT22;3478;51.462;7.338;2023-02-21T22:56:28;8.10;99.90
6879;DHT22;3478;51.462;7.338;2023-02-21T23:01:38;8.00;99.90
6879;DHT22;3478;51.462;7.338;2023-02-21T23:06:41;7.90;99.90
6879;DHT22;3478;51.462;7.338;2023-02-21T23:11:46;7.90;99.90
6879;DHT22;3478;51.462;7.338;2023-02-21T23:16:53;7.90;99.90
6879;DHT22;3478;51.462;7.338;2023-02-21T23:21:56;7.90;99.90
6879;DHT22;3478;51.462;7.338;2023-02-21T23:26:58;7.90;99.90
6879;DHT22;3478;51.462;7.338;2023-02-21T23:32:03;7.90;99.90
6879;DHT22;3478;51.462;7.338;2023-02-21T23:37:09;7.90;99.90
6879;DHT22;3478;51.462;7.338;2023-02-21T23:42:12;7.90;99.90
6879;DHT22;3478;51.462;7.338;2023-02-21T23:47:18;7.90;99.90
6879;DHT22;3478;51.462;7.338;2023-02-21T23:52:20;7.90;99.90
6879;DHT22;3478;51.462;7.338;2023-02-21T23:57:22;7.90;99.90
